sensor_id;sensor_type;location;lat;lon;timestamp;P1;durP1;ratioP1;P2;durP2;ratioP2
52248;SDS011;38541;48.130;8.378;2022-07-19T00:00:06;2.20;;;2.10;;
52248;SDS011;38541;48.130;8.378;2022-07-19T00:02:36;2.65;;;2.10;;
52248;SDS011;38541;48.130;8.378;2022-07-19T00:24:24;2.63;;;2.30;;
52248;SDS011;38541;48.130;8.378;2022-07-19T00:26:51;3.25;;;2.35;;
52248;SDS011;38541;48.130;8.378;2022-07-19T00:29:17;2.05;;;1.95;;
52248;SDS011;38541;48.130;8.378;2022-07-19T00:31:44;2.05;;;1.95;;
52248;SDS011;38541;48.130;8.378;2022-07-19T00:34:10;2.65;;;2.10;;
52248;SDS011;38541;48.130;8.378;2022-07-19T00:36:37;2.38;;;2.20;;
52248;SDS011;38541;48.130;8.378;2022-07-19T00:39:03;2.47;;;2.28;;
52248;SDS011;38541;48.130;8.378;2022-07-19T00:41:30;3.22;;;2.95;;
52248;SDS011;38541;48.130;8.378;2022-07-19T00:43:57;2.88;;;2.65;;
52248;SDS011;38541;48.130;8.378;2022-07-19T00:46:24;2.90;;;2.35;;
52248;SDS011;38541;48.130;8.378;2022-07-19T00:48:51;2.53;;;2.10;;
52248;SDS011;38541;48.130;8.378;2022-07-19T00:51:18;2.50;;;2.30;;
52248;SDS011;38541;48.130;8.378;2022-07-19T00:53:44;2.95;;;2.67;;
52248;SDS011;38541;48.130;8.378;2022-07-19T00:56:12;2.60;;;2.40;;
52248;SDS011;38541;48.130;8.378;2022-07-19T00:58:40;2.75;;;2.38;;
52248;SDS011;38541;48.130;8.378;2022-07-19T01:01:08;2.95;;;2.60;;
52248;SDS011;38541;48.130;8.378;2022-07-19T01:03:36;2.17;;;2.08;;
52248;SDS011;38541;48.130;8.378;2022-07-19T01:06:04;2.40;;;2.20;;
52248;SDS011;38541;48.130;8.378;2022-07-19T01:08:31;2.63;;;2.42;;
52248;SDS011;38541;48.130;8.378;2022-07-19T01:10:58;2.28;;;2.17;;
52248;SDS011;38541;48.130;8.378;2022-07-19T01:13:24;2.47;;;2.17;;
52248;SDS011;38541;48.130;8.378;2022-07-19T01:15:51;3.17;;;2.33;;
52248;SDS011;38541;48.130;8.378;2022-07-19T01:18:18;2.92;;;2.72;;
52248;SDS011;38541;48.130;8.378;2022-07-19T01:20:44;2.47;;;2.28;;
52248;SDS011;38541;48.130;8.378;2022-07-19T01:23:11;2.60;;;2.40;;
52248;SDS011;38541;48.130;8.378;2022-07-19T01:25:37;2.60;;;2.47;;
52248;SDS011;38541;48.130;8.378;2022-07-19T01:28:04;2.17;;;2.00;;
52248;SDS011;38541;48.130;8.378;2022-07-19T01:30:33;2.45;;;2.30;;
52248;SDS011;38541;48.130;8.378;2022-07-19T01:33:00;2.08;;;1.98;;
52248;SDS011;38541;48.130;8.378;2022-07-19T01:35:27;2.70;;;2.50;;
52248;SDS011;38541;48.130;8.378;2022-07-19T01:37:55;2.40;;;2.10;;
52248;SDS011;38541;48.130;8.378;2022-07-19T01:40:23;2.03;;;1.80;;
52248;SDS011;38541;48.130;8.378;2022-07-19T01:42:51;2.35;;;2.20;;
52248;SDS011;38541;48.130;8.378;2022-07-19T01:45:18;2.30;;;2.05;;
52248;SDS011;38541;48.130;8.378;2022-07-19T01:47:45;2.22;;;2.13;;
52248;SDS011;38541;48.130;8.378;2022-07-19T01:50:14;2.50;;;2.10;;
52248;SDS011;38541;48.130;8.378;2022-07-19T01:52:42;2.83;;;2.63;;
52248;SDS011;38541;48.130;8.378;2022-07-19T01:55:15;2.53;;;2.33;;
52248;SDS011;38541;48.130;8.378;2022-07-19T01:57:42;2.42;;;2.22;;
52248;SDS011;38541;48.130;8.378;2022-07-19T02:00:09;2.70;;;2.50;;
52248;SDS011;38541;48.130;8.378;2022-07-19T02:02:40;3.05;;;2.53;;
52248;SDS011;38541;48.130;8.378;2022-07-19T02:05:06;2.65;;;2.45;;
52248;SDS011;38541;48.130;8.378;2022-07-19T02:07:36;2.53;;;2.33;;
52248;SDS011;38541;48.130;8.378;2022-07-19T02:10:03;2.83;;;2.60;;
52248;SDS011;38541;48.130;8.378;2022-07-19T02:12:30;2.50;;;2.30;;
52248;SDS011;38541;48.130;8.378;2022-07-19T02:14:57;3.20;;;2.50;;
52248;SDS011;38541;48.130;8.378;2022-07-19T02:17:23;2.60;;;2.40;;
52248;SDS011;38541;48.130;8.378;2022-07-19T02:19:50;3.17;;;2.65;;
52248;SDS011;38541;48.130;8.378;2022-07-19T02:22:16;2.40;;;2.20;;
52248;SDS011;38541;48.130;8.378;2022-07-19T02:24:43;2.25;;;1.95;;
52248;SDS011;38541;48.130;8.378;2022-07-19T02:27:10;2.50;;;2.30;;
52248;SDS011;38541;48.130;8.378;2022-07-19T02:29:37;2.20;;;2.10;;
52248;SDS011;38541;48.130;8.378;2022-07-19T02:32:04;2.83;;;2.50;;
52248;SDS011;38541;48.130;8.378;2022-07-19T02:34:32;2.40;;;2.20;;
52248;SDS011;38541;48.130;8.378;2022-07-19T02:36:58;2.58;;;2.38;;
52248;SDS011;38541;48.130;8.378;2022-07-19T02:39:25;2.42;;;2.33;;
52248;SDS011;38541;48.130;8.378;2022-07-19T02:41:53;2.60;;;2.40;;
52248;SDS011;38541;48.130;8.378;2022-07-19T02:44:19;2.38;;;2.17;;
52248;SDS011;38541;48.130;8.378;2022-07-19T02:46:46;2.22;;;2.10;;
52248;SDS011;38541;48.130;8.378;2022-07-19T02:49:12;2.58;;;2.38;;
52248;SDS011;38541;48.130;8.378;2022-07-19T02:51:39;2.42;;;2.22;;
52248;SDS011;38541;48.130;8.378;2022-07-19T02:54:05;2.50;;;2.30;;
52248;SDS011;38541;48.130;8.378;2022-07-19T02:56:32;2.17;;;2.05;;
52248;SDS011;38541;48.130;8.378;2022-07-19T02:58:58;2.10;;;2.00;;
52248;SDS011;38541;48.130;8.378;2022-07-19T03:01:25;3.15;;;2.35;;
52248;SDS011;38541;48.130;8.378;2022-07-19T03:03:52;1.98;;;1.88;;
52248;SDS011;38541;48.130;8.378;2022-07-19T03:06:19;4.85;;;4.50;;
52248;SDS011;38541;48.130;8.378;2022-07-19T03:08:45;3.25;;;2.65;;
52248;SDS011;38541;48.130;8.378;2022-07-19T03:11:12;2.17;;;2.08;;
52248;SDS011;38541;48.130;8.378;2022-07-19T03:13:39;2.40;;;2.30;;
52248;SDS011;38541;48.130;8.378;2022-07-19T03:16:06;2.53;;;2.03;;
52248;SDS011;38541;48.130;8.378;2022-07-19T03:18:33;2.45;;;2.25;;
52248;SDS011;38541;48.130;8.378;2022-07-19T03:21:00;2.45;;;2.25;;
52248;SDS011;38541;48.130;8.378;2022-07-19T03:23:27;2.40;;;2.20;;
52248;SDS011;38541;48.130;8.378;2022-07-19T03:25:57;2.88;;;2.30;;
52248;SDS011;38541;48.130;8.378;2022-07-19T03:28:24;2.83;;;2.55;;
52248;SDS011;38541;48.130;8.378;2022-07-19T03:30:50;2.40;;;2.20;;
52248;SDS011;38541;48.130;8.378;2022-07-19T03:33:17;2.50;;;2.30;;
52248;SDS011;38541;48.130;8.378;2022-07-19T03:35:44;2.75;;;2.53;;
52248;SDS011;38541;48.130;8.378;2022-07-19T03:38:12;3.25;;;2.50;;
52248;SDS011;38541;48.130;8.378;2022-07-19T03:40:41;2.63;;;2.42;;
52248;SDS011;38541;48.130;8.378;2022-07-19T03:43:08;6.57;;;2.40;;
52248;SDS011;38541;48.130;8.378;2022-07-19T03:45:35;4.25;;;2.10;;
52248;SDS011;38541;48.130;8.378;2022-07-19T03:48:01;3.90;;;2.75;;
52248;SDS011;38541;48.130;8.378;2022-07-19T03:50:28;2.70;;;2.50;;
52248;SDS011;38541;48.130;8.378;2022-07-19T03:52:54;2.70;;;2.20;;
52248;SDS011;38541;48.130;8.378;2022-07-19T03:55:21;3.85;;;2.47;;
52248;SDS011;38541;48.130;8.378;2022-07-19T03:57:48;2.20;;;2.03;;
52248;SDS011;38541;48.130;8.378;2022-07-19T04:00:15;4.72;;;2.92;;
52248;SDS011;38541;48.130;8.378;2022-07-19T04:02:42;3.25;;;2.58;;
52248;SDS011;38541;48.130;8.378;2022-07-19T04:05:09;2.58;;;2.38;;
52248;SDS011;38541;48.130;8.378;2022-07-19T04:07:36;2.97;;;2.38;;
52248;SDS011;38541;48.130;8.378;2022-07-19T04:10:02;3.33;;;2.67;;
52248;SDS011;38541;48.130;8.378;2022-07-19T04:12:29;3.42;;;3.13;;
52248;SDS011;38541;48.130;8.378;2022-07-19T04:14:56;2.20;;;2.10;;
52248;SDS011;38541;48.130;8.378;2022-07-19T04:17:22;3.00;;;2.70;;
52248;SDS011;38541;48.130;8.378;2022-07-19T04:19:50;2.70;;;2.50;;
52248;SDS011;38541;48.130;8.378;2022-07-19T04:22:16;2.85;;;2.53;;
52248;SDS011;38541;48.130;8.378;2022-07-19T04:24:43;2.40;;;2.20;;
52248;SDS011;38541;48.130;8.378;2022-07-19T04:27:10;2.40;;;2.28;;
52248;SDS011;38541;48.130;8.378;2022-07-19T04:29:37;2.97;;;2.15;;
52248;SDS011;38541;48.130;8.378;2022-07-19T04:32:03;2.50;;;2.30;;
52248;SDS011;38541;48.130;8.378;2022-07-19T04:34:31;3.38;;;2.50;;
52248;SDS011;38541;48.130;8.378;2022-07-19T04:36:57;2.63;;;2.42;;
52248;SDS011;38541;48.130;8.378;2022-07-19T04:39:24;2.70;;;2.50;;
52248;SDS011;38541;48.130;8.378;2022-07-19T04:41:50;2.80;;;2.60;;
52248;SDS011;38541;48.130;8.378;2022-07-19T04:44:17;3.53;;;3.22;;
52248;SDS011;38541;48.130;8.378;2022-07-19T04:46:43;12.73;;;6.63;;
52248;SDS011;38541;48.130;8.378;2022-07-19T04:49:13;12.82;;;6.68;;
52248;SDS011;38541;48.130;8.378;2022-07-19T04:51:39;7.30;;;4.70;;
52248;SDS011;38541;48.130;8.378;2022-07-19T04:54:06;9.35;;;3.78;;
52248;SDS011;38541;48.130;8.378;2022-07-19T04:56:33;3.15;;;2.85;;
52248;SDS011;38541;48.130;8.378;2022-07-19T04:58:59;3.55;;;2.47;;
52248;SDS011;38541;48.130;8.378;2022-07-19T05:01:26;3.78;;;3.10;;
52248;SDS011;38541;48.130;8.378;2022-07-19T05:03:52;3.35;;;2.83;;
52248;SDS011;38541;48.130;8.378;2022-07-19T05:06:19;4.72;;;2.78;;
52248;SDS011;38541;48.130;8.378;2022-07-19T05:08:46;5.43;;;3.05;;
52248;SDS011;38541;48.130;8.378;2022-07-19T05:11:12;4.38;;;2.22;;
52248;SDS011;38541;48.130;8.378;2022-07-19T05:13:39;4.18;;;2.50;;
52248;SDS011;38541;48.130;8.378;2022-07-19T05:16:05;2.97;;;2.70;;
52248;SDS011;38541;48.130;8.378;2022-07-19T05:18:32;5.10;;;3.30;;
52248;SDS011;38541;48.130;8.378;2022-07-19T05:20:59;3.00;;;2.70;;
52248;SDS011;38541;48.130;8.378;2022-07-19T05:23:25;3.30;;;2.70;;
52248;SDS011;38541;48.130;8.378;2022-07-19T05:25:52;2.78;;;2.58;;
52248;SDS011;38541;48.130;8.378;2022-07-19T05:28:18;3.97;;;3.28;;
52248;SDS011;38541;48.130;8.378;2022-07-19T05:30:45;4.45;;;3.53;;
52248;SDS011;38541;48.130;8.378;2022-07-19T05:33:12;3.58;;;3.28;;
52248;SDS011;38541;48.130;8.378;2022-07-19T05:35:38;2.80;;;2.45;;
52248;SDS011;38541;48.130;8.378;2022-07-19T05:38:05;2.63;;;2.42;;
52248;SDS011;38541;48.130;8.378;2022-07-19T05:40:35;3.30;;;3.00;;
52248;SDS011;38541;48.130;8.378;2022-07-19T05:43:02;3.80;;;2.80;;
52248;SDS011;38541;48.130;8.378;2022-07-19T05:45:28;4.28;;;2.70;;
52248;SDS011;38541;48.130;8.378;2022-07-19T05:47:55;3.35;;;2.92;;
52248;SDS011;38541;48.130;8.378;2022-07-19T05:50:21;4.22;;;3.80;;
52248;SDS011;38541;48.130;8.378;2022-07-19T05:52:48;3.10;;;2.60;;
52248;SDS011;38541;48.130;8.378;2022-07-19T05:55:14;2.72;;;2.53;;
52248;SDS011;38541;48.130;8.378;2022-07-19T05:57:41;2.72;;;2.42;;
52248;SDS011;38541;48.130;8.378;2022-07-19T06:00:07;2.38;;;2.17;;
52248;SDS011;38541;48.130;8.378;2022-07-19T06:06:49;3.10;;;2.22;;
52248;SDS011;38541;48.130;8.378;2022-07-19T06:13:21;4.00;;;3.60;;
52248;SDS011;38541;48.130;8.378;2022-07-19T06:15:48;5.22;;;3.15;;
52248;SDS011;38541;48.130;8.378;2022-07-19T06:18:16;4.85;;;3.05;;
52248;SDS011;38541;48.130;8.378;2022-07-19T06:20:46;2.70;;;2.50;;
52248;SDS011;38541;48.130;8.378;2022-07-19T06:23:12;2.78;;;2.58;;
52248;SDS011;38541;48.130;8.378;2022-07-19T06:25:45;3.20;;;2.08;;
52248;SDS011;38541;48.130;8.378;2022-07-19T06:28:12;2.72;;;2.38;;
52248;SDS011;38541;48.130;8.378;2022-07-19T06:30:38;3.17;;;2.25;;
52248;SDS011;38541;48.130;8.378;2022-07-19T06:33:05;1.95;;;1.85;;
52248;SDS011;38541;48.130;8.378;2022-07-19T06:35:31;2.45;;;2.33;;
52248;SDS011;38541;48.130;8.378;2022-07-19T06:37:58;3.58;;;2.38;;
52248;SDS011;38541;48.130;8.378;2022-07-19T06:40:24;2.55;;;2.35;;
52248;SDS011;38541;48.130;8.378;2022-07-19T06:42:51;2.47;;;2.28;;
52248;SDS011;38541;48.130;8.378;2022-07-19T06:45:18;1.98;;;1.88;;
52248;SDS011;38541;48.130;8.378;2022-07-19T06:47:45;6.75;;;1.77;;
52248;SDS011;38541;48.130;8.378;2022-07-19T06:50:12;5.60;;;2.03;;
52248;SDS011;38541;48.130;8.378;2022-07-19T06:52:58;2.97;;;2.78;;
52248;SDS011;38541;48.130;8.378;2022-07-19T06:55:25;2.75;;;2.20;;
52248;SDS011;38541;48.130;8.378;2022-07-19T06:57:52;2.58;;;1.85;;
52248;SDS011;38541;48.130;8.378;2022-07-19T07:00:18;1.77;;;1.67;;
52248;SDS011;38541;48.130;8.378;2022-07-19T07:02:45;1.50;;;1.40;;
52248;SDS011;38541;48.130;8.378;2022-07-19T07:05:12;1.55;;;1.45;;
52248;SDS011;38541;48.130;8.378;2022-07-19T07:07:39;1.73;;;1.60;;
52248;SDS011;38541;48.130;8.378;2022-07-19T07:10:07;5.20;;;1.80;;
52248;SDS011;38541;48.130;8.378;2022-07-19T07:12:36;1.45;;;1.35;;
52248;SDS011;38541;48.130;8.378;2022-07-19T07:15:03;1.45;;;1.35;;
52248;SDS011;38541;48.130;8.378;2022-07-19T07:17:31;1.48;;;1.38;;
52248;SDS011;38541;48.130;8.378;2022-07-19T07:19:58;3.28;;;1.38;;
52248;SDS011;38541;48.130;8.378;2022-07-19T07:22:24;2.13;;;1.30;;
52248;SDS011;38541;48.130;8.378;2022-07-19T07:24:51;1.80;;;1.45;;
52248;SDS011;38541;48.130;8.378;2022-07-19T07:27:18;1.35;;;1.20;;
52248;SDS011;38541;48.130;8.378;2022-07-19T07:29:45;1.05;;;1.05;;
52248;SDS011;38541;48.130;8.378;2022-07-19T07:32:11;1.33;;;1.02;;
52248;SDS011;38541;48.130;8.378;2022-07-19T07:34:38;1.50;;;1.40;;
52248;SDS011;38541;48.130;8.378;2022-07-19T07:37:05;1.60;;;1.50;;
52248;SDS011;38541;48.130;8.378;2022-07-19T07:39:31;1.45;;;1.35;;
52248;SDS011;38541;48.130;8.378;2022-07-19T07:41:58;1.40;;;1.30;;
52248;SDS011;38541;48.130;8.378;2022-07-19T07:44:37;4.82;;;1.77;;
52248;SDS011;38541;48.130;8.378;2022-07-19T07:47:03;2.22;;;1.52;;
52248;SDS011;38541;48.130;8.378;2022-07-19T07:49:30;1.58;;;1.27;;
52248;SDS011;38541;48.130;8.378;2022-07-19T07:51:57;2.65;;;1.50;;
52248;SDS011;38541;48.130;8.378;2022-07-19T07:54:24;1.50;;;1.40;;
52248;SDS011;38541;48.130;8.378;2022-07-19T07:56:51;1.90;;;1.30;;
52248;SDS011;38541;48.130;8.378;2022-07-19T07:59:17;2.30;;;1.60;;
52248;SDS011;38541;48.130;8.378;2022-07-19T08:01:44;3.85;;;1.45;;
52248;SDS011;38541;48.130;8.378;2022-07-19T08:04:10;2.25;;;2.05;;
52248;SDS011;38541;48.130;8.378;2022-07-19T08:06:37;1.67;;;1.50;;
52248;SDS011;38541;48.130;8.378;2022-07-19T08:09:04;1.70;;;1.60;;
52248;SDS011;38541;48.130;8.378;2022-07-19T08:11:32;1.60;;;1.50;;
52248;SDS011;38541;48.130;8.378;2022-07-19T08:14:00;1.45;;;1.30;;
52248;SDS011;38541;48.130;8.378;2022-07-19T08:16:27;1.95;;;1.60;;
52248;SDS011;38541;48.130;8.378;2022-07-19T08:18:54;1.63;;;1.50;;
52248;SDS011;38541;48.130;8.378;2022-07-19T08:21:20;1.30;;;1.20;;
52248;SDS011;38541;48.130;8.378;2022-07-19T08:23:47;2.00;;;1.20;;
52248;SDS011;38541;48.130;8.378;2022-07-19T08:26:13;2.90;;;1.83;;
52248;SDS011;38541;48.130;8.378;2022-07-19T08:28:40;2.15;;;1.45;;
52248;SDS011;38541;48.130;8.378;2022-07-19T08:31:07;1.90;;;1.60;;
52248;SDS011;38541;48.130;8.378;2022-07-19T08:33:38;2.00;;;1.35;;
52248;SDS011;38541;48.130;8.378;2022-07-19T08:36:05;2.28;;;1.90;;
52248;SDS011;38541;48.130;8.378;2022-07-19T08:38:32;1.58;;;1.48;;
52248;SDS011;38541;48.130;8.378;2022-07-19T08:40:59;2.90;;;1.92;;
52248;SDS011;38541;48.130;8.378;2022-07-19T08:43:27;1.98;;;1.60;;
52248;SDS011;38541;48.130;8.378;2022-07-19T08:45:54;1.67;;;1.58;;
52248;SDS011;38541;48.130;8.378;2022-07-19T08:48:23;2.22;;;1.38;;
52248;SDS011;38541;48.130;8.378;2022-07-19T08:50:50;2.95;;;1.48;;
52248;SDS011;38541;48.130;8.378;2022-07-19T08:53:18;1.88;;;1.50;;
52248;SDS011;38541;48.130;8.378;2022-07-19T08:55:45;1.73;;;1.40;;
52248;SDS011;38541;48.130;8.378;2022-07-19T08:58:11;1.77;;;1.67;;
52248;SDS011;38541;48.130;8.378;2022-07-19T09:00:38;1.77;;;1.50;;
52248;SDS011;38541;48.130;8.378;2022-07-19T09:03:05;1.63;;;1.30;;
52248;SDS011;38541;48.130;8.378;2022-07-19T09:05:33;3.15;;;1.60;;
52248;SDS011;38541;48.130;8.378;2022-07-19T09:10:34;2.22;;;1.70;;
52248;SDS011;38541;48.130;8.378;2022-07-19T09:13:03;2.38;;;1.63;;
52248;SDS011;38541;48.130;8.378;2022-07-19T09:15:50;3.33;;;1.70;;
52248;SDS011;38541;48.130;8.378;2022-07-19T09:18:19;1.52;;;1.42;;
52248;SDS011;38541;48.130;8.378;2022-07-19T09:20:47;2.53;;;1.80;;
52248;SDS011;38541;48.130;8.378;2022-07-19T09:23:16;2.08;;;1.65;;
52248;SDS011;38541;48.130;8.378;2022-07-19T09:25:44;1.70;;;1.60;;
52248;SDS011;38541;48.130;8.378;2022-07-19T09:28:15;1.67;;;1.45;;
52248;SDS011;38541;48.130;8.378;2022-07-19T09:30:47;2.83;;;1.90;;
52248;SDS011;38541;48.130;8.378;2022-07-19T09:33:19;1.85;;;1.75;;
52248;SDS011;38541;48.130;8.378;2022-07-19T09:35:57;3.35;;;1.80;;
52248;SDS011;38541;48.130;8.378;2022-07-19T09:38:29;1.90;;;1.70;;
52248;SDS011;38541;48.130;8.378;2022-07-19T09:41:16;1.70;;;1.60;;
52248;SDS011;38541;48.130;8.378;2022-07-19T09:43:48;1.80;;;1.70;;
52248;SDS011;38541;48.130;8.378;2022-07-19T09:49:14;2.08;;;1.88;;
52248;SDS011;38541;48.130;8.378;2022-07-19T09:51:43;1.60;;;1.50;;
52248;SDS011;38541;48.130;8.378;2022-07-19T09:54:13;1.77;;;1.63;;
52248;SDS011;38541;48.130;8.378;2022-07-19T09:56:42;2.10;;;1.67;;
52248;SDS011;38541;48.130;8.378;2022-07-19T09:59:10;3.22;;;1.70;;
52248;SDS011;38541;48.130;8.378;2022-07-19T10:01:37;2.03;;;1.85;;
52248;SDS011;38541;48.130;8.378;2022-07-19T10:04:08;2.40;;;2.00;;
52248;SDS011;38541;48.130;8.378;2022-07-19T10:06:39;2.67;;;2.30;;
52248;SDS011;38541;48.130;8.378;2022-07-19T10:09:07;3.15;;;1.80;;
52248;SDS011;38541;48.130;8.378;2022-07-19T10:11:39;3.45;;;1.67;;
52248;SDS011;38541;48.130;8.378;2022-07-19T10:14:06;1.98;;;1.77;;
52248;SDS011;38541;48.130;8.378;2022-07-19T10:19:44;2.40;;;2.10;;
52248;SDS011;38541;48.130;8.378;2022-07-19T10:22:15;2.83;;;1.70;;
52248;SDS011;38541;48.130;8.378;2022-07-19T10:32:30;1.83;;;1.50;;
52248;SDS011;38541;48.130;8.378;2022-07-19T10:35:16;4.88;;;2.03;;
52248;SDS011;38541;48.130;8.378;2022-07-19T10:43:14;2.25;;;2.00;;
52248;SDS011;38541;48.130;8.378;2022-07-19T10:48:35;2.25;;;1.58;;
52248;SDS011;38541;48.130;8.378;2022-07-19T10:51:10;2.28;;;2.00;;
52248;SDS011;38541;48.130;8.378;2022-07-19T10:53:56;4.50;;;2.13;;
52248;SDS011;38541;48.130;8.378;2022-07-19T10:56:37;3.58;;;2.47;;
52248;SDS011;38541;48.130;8.378;2022-07-19T10:59:28;2.63;;;2.20;;
52248;SDS011;38541;48.130;8.378;2022-07-19T11:02:00;3.38;;;1.92;;
52248;SDS011;38541;48.130;8.378;2022-07-19T11:04:48;5.80;;;2.20;;
52248;SDS011;38541;48.130;8.378;2022-07-19T11:07:17;3.95;;;2.25;;
52248;SDS011;38541;48.130;8.378;2022-07-19T11:09:50;2.17;;;1.98;;
52248;SDS011;38541;48.130;8.378;2022-07-19T11:12:23;2.60;;;2.05;;
52248;SDS011;38541;48.130;8.378;2022-07-19T11:14:50;2.72;;;2.40;;
52248;SDS011;38541;48.130;8.378;2022-07-19T11:17:37;3.08;;;2.17;;
52248;SDS011;38541;48.130;8.378;2022-07-19T11:22:40;3.33;;;2.10;;
52248;SDS011;38541;48.130;8.378;2022-07-19T11:25:09;3.97;;;2.40;;
52248;SDS011;38541;48.130;8.378;2022-07-19T11:27:41;2.63;;;2.00;;
52248;SDS011;38541;48.130;8.378;2022-07-19T11:30:12;3.97;;;2.70;;
52248;SDS011;38541;48.130;8.378;2022-07-19T11:32:40;2.08;;;1.95;;
52248;SDS011;38541;48.130;8.378;2022-07-19T11:35:11;4.53;;;1.90;;
52248;SDS011;38541;48.130;8.378;2022-07-19T11:37:39;3.50;;;2.10;;
52248;SDS011;38541;48.130;8.378;2022-07-19T11:40:07;4.22;;;1.90;;
52248;SDS011;38541;48.130;8.378;2022-07-19T11:42:39;3.28;;;2.05;;
52248;SDS011;38541;48.130;8.378;2022-07-19T11:45:27;3.50;;;1.95;;
52248;SDS011;38541;48.130;8.378;2022-07-19T11:47:55;4.00;;;2.10;;
52248;SDS011;38541;48.130;8.378;2022-07-19T11:50:25;2.05;;;1.88;;
52248;SDS011;38541;48.130;8.378;2022-07-19T11:52:54;2.20;;;2.00;;
52248;SDS011;38541;48.130;8.378;2022-07-19T11:55:26;2.35;;;1.83;;
52248;SDS011;38541;48.130;8.378;2022-07-19T11:57:54;3.85;;;1.80;;
52248;SDS011;38541;48.130;8.378;2022-07-19T12:00:22;2.88;;;1.88;;
52248;SDS011;38541;48.130;8.378;2022-07-19T12:03:13;3.92;;;2.05;;
52248;SDS011;38541;48.130;8.378;2022-07-19T12:05:39;2.00;;;1.80;;
52248;SDS011;38541;48.130;8.378;2022-07-19T12:08:19;4.68;;;1.88;;
52248;SDS011;38541;48.130;8.378;2022-07-19T12:10:46;3.00;;;2.40;;
52248;SDS011;38541;48.130;8.378;2022-07-19T12:15:57;2.05;;;1.77;;
52248;SDS011;38541;48.130;8.378;2022-07-19T12:18:43;1.75;;;1.65;;
52248;SDS011;38541;48.130;8.378;2022-07-19T12:26:35;4.30;;;1.55;;
52248;SDS011;38541;48.130;8.378;2022-07-19T12:29:20;4.70;;;1.70;;
52248;SDS011;38541;48.130;8.378;2022-07-19T12:31:49;3.05;;;1.80;;
52248;SDS011;38541;48.130;8.378;2022-07-19T12:34:19;2.53;;;2.10;;
52248;SDS011;38541;48.130;8.378;2022-07-19T12:36:46;3.60;;;1.70;;
52248;SDS011;38541;48.130;8.378;2022-07-19T12:39:20;1.63;;;1.52;;
52248;SDS011;38541;48.130;8.378;2022-07-19T12:44:24;5.95;;;1.92;;
52248;SDS011;38541;48.130;8.378;2022-07-19T12:46:52;2.35;;;2.10;;
52248;SDS011;38541;48.130;8.378;2022-07-19T12:49:47;2.35;;;1.88;;
52248;SDS011;38541;48.130;8.378;2022-07-19T12:54:50;5.97;;;1.80;;
52248;SDS011;38541;48.130;8.378;2022-07-19T12:57:17;2.08;;;1.77;;
52248;SDS011;38541;48.130;8.378;2022-07-19T12:59:43;1.80;;;1.70;;
52248;SDS011;38541;48.130;8.378;2022-07-19T13:02:11;2.35;;;2.15;;
52248;SDS011;38541;48.130;8.378;2022-07-19T13:04:41;2.40;;;2.20;;
52248;SDS011;38541;48.130;8.378;2022-07-19T13:07:09;2.90;;;1.90;;
52248;SDS011;38541;48.130;8.378;2022-07-19T13:09:37;3.38;;;1.90;;
52248;SDS011;38541;48.130;8.378;2022-07-19T13:12:06;2.28;;;1.95;;
52248;SDS011;38541;48.130;8.378;2022-07-19T13:14:34;2.10;;;1.90;;
52248;SDS011;38541;48.130;8.378;2022-07-19T13:17:01;3.08;;;2.08;;
52248;SDS011;38541;48.130;8.378;2022-07-19T13:19:29;4.20;;;2.33;;
52248;SDS011;38541;48.130;8.378;2022-07-19T13:21:56;1.73;;;1.63;;
52248;SDS011;38541;48.130;8.378;2022-07-19T13:24:22;2.95;;;2.17;;
52248;SDS011;38541;48.130;8.378;2022-07-19T13:27:09;3.50;;;2.30;;
52248;SDS011;38541;48.130;8.378;2022-07-19T13:29:35;2.63;;;2.42;;
52248;SDS011;38541;48.130;8.378;2022-07-19T13:32:04;4.80;;;2.00;;
52248;SDS011;38541;48.130;8.378;2022-07-19T13:34:32;2.80;;;2.13;;
52248;SDS011;38541;48.130;8.378;2022-07-19T13:36:59;2.67;;;1.98;;
52248;SDS011;38541;48.130;8.378;2022-07-19T13:39:26;5.18;;;2.80;;
52248;SDS011;38541;48.130;8.378;2022-07-19T13:41:52;2.38;;;2.17;;
52248;SDS011;38541;48.130;8.378;2022-07-19T13:44:19;2.92;;;2.10;;
52248;SDS011;38541;48.130;8.378;2022-07-19T13:46:46;2.92;;;2.33;;
52248;SDS011;38541;48.130;8.378;2022-07-19T13:49:12;3.30;;;1.80;;
52248;SDS011;38541;48.130;8.378;2022-07-19T13:51:39;2.50;;;1.83;;
52248;SDS011;38541;48.130;8.378;2022-07-19T13:54:05;3.67;;;1.83;;
52248;SDS011;38541;48.130;8.378;2022-07-19T13:56:32;4.13;;;1.90;;
52248;SDS011;38541;48.130;8.378;2022-07-19T13:58:59;4.25;;;2.20;;
52248;SDS011;38541;48.130;8.378;2022-07-19T14:01:29;2.67;;;1.80;;
52248;SDS011;38541;48.130;8.378;2022-07-19T14:04:13;2.00;;;1.80;;
52248;SDS011;38541;48.130;8.378;2022-07-19T14:06:48;2.47;;;2.22;;
52248;SDS011;38541;48.130;8.378;2022-07-19T14:09:15;1.75;;;1.65;;
52248;SDS011;38541;48.130;8.378;2022-07-19T14:11:42;2.80;;;1.80;;
52248;SDS011;38541;48.130;8.378;2022-07-19T14:14:10;1.75;;;1.63;;
52248;SDS011;38541;48.130;8.378;2022-07-19T14:16:38;2.45;;;2.20;;
52248;SDS011;38541;48.130;8.378;2022-07-19T14:19:04;1.65;;;1.55;;
52248;SDS011;38541;48.130;8.378;2022-07-19T14:21:31;2.50;;;1.70;;
52248;SDS011;38541;48.130;8.378;2022-07-19T14:24:00;3.58;;;1.70;;
52248;SDS011;38541;48.130;8.378;2022-07-19T14:26:28;1.75;;;1.60;;
52248;SDS011;38541;48.130;8.378;2022-07-19T14:28:54;2.30;;;1.60;;
52248;SDS011;38541;48.130;8.378;2022-07-19T14:31:21;2.65;;;1.40;;
52248;SDS011;38541;48.130;8.378;2022-07-19T14:33:48;2.13;;;1.55;;
52248;SDS011;38541;48.130;8.378;2022-07-19T14:36:15;2.05;;;1.50;;
52248;SDS011;38541;48.130;8.378;2022-07-19T14:38:41;2.47;;;1.77;;
52248;SDS011;38541;48.130;8.378;2022-07-19T14:41:08;2.20;;;1.77;;
52248;SDS011;38541;48.130;8.378;2022-07-19T14:43:35;1.90;;;1.80;;
52248;SDS011;38541;48.130;8.378;2022-07-19T14:46:02;2.17;;;1.63;;
52248;SDS011;38541;48.130;8.378;2022-07-19T14:48:29;1.77;;;1.63;;
52248;SDS011;38541;48.130;8.378;2022-07-19T14:50:55;2.03;;;1.60;;
52248;SDS011;38541;48.130;8.378;2022-07-19T14:53:22;2.90;;;1.60;;
52248;SDS011;38541;48.130;8.378;2022-07-19T14:55:48;1.60;;;1.50;;
52248;SDS011;38541;48.130;8.378;2022-07-19T14:58:15;2.58;;;1.60;;
52248;SDS011;38541;48.130;8.378;2022-07-19T15:00:41;2.47;;;1.75;;
52248;SDS011;38541;48.130;8.378;2022-07-19T15:03:08;2.80;;;1.60;;
52248;SDS011;38541;48.130;8.378;2022-07-19T15:05:35;2.17;;;1.63;;
52248;SDS011;38541;48.130;8.378;2022-07-19T15:08:02;1.95;;;1.40;;
52248;SDS011;38541;48.130;8.378;2022-07-19T15:10:28;2.47;;;1.50;;
52248;SDS011;38541;48.130;8.378;2022-07-19T15:12:55;2.30;;;1.63;;
52248;SDS011;38541;48.130;8.378;2022-07-19T15:15:22;2.22;;;1.80;;
52248;SDS011;38541;48.130;8.378;2022-07-19T15:17:48;2.33;;;1.98;;
52248;SDS011;38541;48.130;8.378;2022-07-19T15:20:15;1.85;;;1.52;;
52248;SDS011;38541;48.130;8.378;2022-07-19T15:22:41;2.42;;;1.90;;
52248;SDS011;38541;48.130;8.378;2022-07-19T15:25:08;4.07;;;1.83;;
52248;SDS011;38541;48.130;8.378;2022-07-19T15:27:35;4.07;;;1.60;;
52248;SDS011;38541;48.130;8.378;2022-07-19T15:30:02;1.45;;;1.35;;
52248;SDS011;38541;48.130;8.378;2022-07-19T15:32:29;1.55;;;1.45;;
52248;SDS011;38541;48.130;8.378;2022-07-19T15:34:55;1.80;;;1.40;;
52248;SDS011;38541;48.130;8.378;2022-07-19T15:37:22;2.40;;;2.20;;
52248;SDS011;38541;48.130;8.378;2022-07-19T15:39:48;1.50;;;1.40;;
52248;SDS011;38541;48.130;8.378;2022-07-19T15:42:15;2.22;;;1.40;;
52248;SDS011;38541;48.130;8.378;2022-07-19T15:44:42;3.53;;;1.55;;
52248;SDS011;38541;48.130;8.378;2022-07-19T15:47:08;2.38;;;1.60;;
52248;SDS011;38541;48.130;8.378;2022-07-19T15:49:35;1.40;;;1.30;;
52248;SDS011;38541;48.130;8.378;2022-07-19T15:52:04;3.13;;;1.80;;
52248;SDS011;38541;48.130;8.378;2022-07-19T15:54:30;2.08;;;1.55;;
52248;SDS011;38541;48.130;8.378;2022-07-19T15:56:57;3.20;;;1.75;;
52248;SDS011;38541;48.130;8.378;2022-07-19T15:59:24;1.55;;;1.45;;
52248;SDS011;38541;48.130;8.378;2022-07-19T16:01:50;1.67;;;1.42;;